Time;durP1;ratioP1;P1;durP2;ratioP2;P2;SDS_P1;SDS_P2;PMS_P1;PMS_P2;Temp;Humidity;BMP_temperature;BMP_pressure;BME280_temperature;BME280_humidity;BME280_pressure;Samples;Min_cycle;Max_cycle;Signal;HPM_P1;HPM_P2
2022/05/06 00:00:14;;;;;;;9.65;5.15;;;;;;;;;;5035204;28;20284;-41
2022/05/06 00:03:01;;;;;;;10.52;4.72;;;;;;;;;;5034763;28;20548;-43
2022/05/06 00:05:30;;;;;;;6.93;4.63;;;;;;;;;;5034614;28;20227;-42
2022/05/06 00:07:57;;;;;;;9.90;4.57;;;;;;;;;;5034306;28;20220;-41
2022/05/06 00:10:24;;;;;;;9.63;4.78;;;;;;;;;;5034079;28;20592;-43
2022/05/06 00:12:51;;;;;;;10.90;4.57;;;;;;;;;;5034207;28;20205;-41
2022/05/06 00:15:19;;;;;;;8.32;4.72;;;;;;;;;;5034284;28;20205;-41
2022/05/06 00:17:46;;;;;;;10.60;4.68;;;;;;;;;;5033564;28;20649;-42
2022/05/06 00:20:13;;;;;;;8.32;4.65;;;;;;;;;;5034334;28;20209;-42
2022/05/06 00:22:43;;;;;;;7.63;4.05;;;;;;;;;;5033894;28;20215;-41
2022/05/06 00:25:10;;;;;;;8.75;4.35;;;;;;;;;;5033588;28;20208;-42
2022/05/06 00:27:41;;;;;;;8.32;4.13;;;;;;;;;;5033941;28;20219;-41
2022/05/06 00:30:10;;;;;;;15.05;4.70;;;;;;;;;;5036980;28;20655;-41
2022/05/06 00:32:37;;;;;;;8.25;4.10;;;;;;;;;;5036814;28;20231;-42
2022/05/06 00:35:05;;;;;;;7.78;4.25;;;;;;;;;;5037927;28;20230;-43
2022/05/06 00:37:32;;;;;;;10.05;4.30;;;;;;;;;;5038267;28;20201;-42
2022/05/06 00:39:59;;;;;;;7.03;4.25;;;;;;;;;;5038318;28;20226;-41
2022/05/06 00:42:26;;;;;;;6.50;4.10;;;;;;;;;;5037246;28;20212;-41
2022/05/06 00:44:54;;;;;;;11.38;4.28;;;;;;;;;;5037988;28;20200;-42
2022/05/06 00:47:22;;;;;;;9.50;4.25;;;;;;;;;;5038198;28;20200;-41
2022/05/06 00:49:52;;;;;;;6.45;3.90;;;;;;;;;;5037404;28;20290;-41
2022/05/06 00:52:19;;;;;;;7.10;4.32;;;;;;;;;;5038145;28;20267;-42
2022/05/06 00:54:47;;;;;;;8.88;3.95;;;;;;;;;;5021421;28;20208;-41
2022/05/06 00:57:14;;;;;;;9.07;4.80;;;;;;;;;;5037430;28;20201;-42
2022/05/06 01:02:26;;;;;;;13.48;4.25;;;;;;;;;;5037445;28;20212;-42
2022/05/06 01:04:56;;;;;;;8.13;3.97;;;;;;;;;;5037886;28;20227;-41
2022/05/06 01:07:24;;;;;;;14.05;4.60;;;;;;;;;;5037408;28;20201;-41
2022/05/06 01:09:51;;;;;;;8.25;3.55;;;;;;;;;;5036942;28;20296;-41
2022/05/06 01:12:19;;;;;;;8.18;3.90;;;;;;;;;;5038109;28;20228;-41
2022/05/06 01:14:46;;;;;;;12.27;3.83;;;;;;;;;;5037016;28;20220;-41
2022/05/06 01:17:22;;;;;;;10.20;4.20;;;;;;;;;;5037237;28;20204;-41
2022/05/06 01:19:49;;;;;;;9.20;3.65;;;;;;;;;;5037931;28;20623;-41
2022/05/06 01:22:17;;;;;;;8.57;4.15;;;;;;;;;;5037583;28;20215;-42
2022/05/06 01:24:45;;;;;;;8.48;4.40;;;;;;;;;;5037415;28;20269;-43
2022/05/06 01:27:17;;;;;;;11.57;3.97;;;;;;;;;;5037066;28;20223;-41
2022/05/06 01:29:45;;;;;;;7.38;4.40;;;;;;;;;;5036983;28;20648;-42
2022/05/06 01:32:14;;;;;;;12.30;3.75;;;;;;;;;;5037613;28;20666;-41
2022/05/06 01:34:41;;;;;;;8.57;3.70;;;;;;;;;;5036481;28;20262;-41
2022/05/06 01:37:17;;;;;;;8.30;4.00;;;;;;;;;;5036701;28;20197;-42
2022/05/06 01:39:48;;;;;;;9.90;4.30;;;;;;;;;;5036516;28;20204;-45
2022/05/06 01:42:20;;;;;;;7.15;4.40;;;;;;;;;;5037228;28;20200;-42
2022/05/06 01:44:53;;;;;;;10.95;4.13;;;;;;;;;;5036736;28;20216;-42
2022/05/06 01:47:25;;;;;;;14.40;4.35;;;;;;;;;;5019606;28;20216;-41
2022/05/06 01:49:58;;;;;;;9.65;4.32;;;;;;;;;;5035957;28;20232;-42
2022/05/06 01:52:30;;;;;;;11.35;4.32;;;;;;;;;;5037113;28;20217;-41
2022/05/06 01:54:58;;;;;;;7.28;4.22;;;;;;;;;;5036352;28;20212;-42
2022/05/06 01:57:30;;;;;;;8.70;3.90;;;;;;;;;;5036500;28;20623;-42
2022/05/06 01:59:57;;;;;;;7.55;4.07;;;;;;;;;;5035670;28;20212;-41
2022/05/06 02:02:25;;;;;;;12.27;3.92;;;;;;;;;;5036090;28;20211;-43
2022/05/06 02:07:44;;;;;;;10.05;4.18;;;;;;;;;;5036181;28;20200;-41
2022/05/06 02:10:12;;;;;;;8.45;3.90;;;;;;;;;;5035808;28;20296;-42
2022/05/06 02:12:42;;;;;;;15.38;4.10;;;;;;;;;;5036096;28;20745;-41
2022/05/06 02:15:29;;;;;;;11.90;4.10;;;;;;;;;;5035985;28;20204;-41
2022/05/06 02:18:19;;;;;;;11.10;4.18;;;;;;;;;;5026503;28;20226;-43
2022/05/06 02:21:05;;;;;;;7.50;3.92;;;;;;;;;;5036472;28;20220;-42
2022/05/06 02:23:43;;;;;;;7.38;3.92;;;;;;;;;;5035432;28;20284;-41
2022/05/06 02:26:29;;;;;;;5.90;3.65;;;;;;;;;;5036274;28;20274;-42
2022/05/06 02:29:00;;;;;;;12.32;4.45;;;;;;;;;;5035758;28;20195;-41
2022/05/06 02:34:18;;;;;;;10.50;3.83;;;;;;;;;;5035500;28;20200;-42
2022/05/06 02:36:52;;;;;;;11.13;3.92;;;;;;;;;;5035297;28;20205;-41
2022/05/06 02:39:19;;;;;;;10.48;4.55;;;;;;;;;;5035947;28;20733;-41
2022/05/06 02:41:52;;;;;;;10.30;4.00;;;;;;;;;;5035221;28;20239;-40
2022/05/06 02:44:21;;;;;;;8.27;4.00;;;;;;;;;;5035062;28;20659;-41
2022/05/06 02:46:49;;;;;;;8.30;4.22;;;;;;;;;;5035037;28;20201;-40
2022/05/06 02:49:16;;;;;;;8.18;3.85;;;;;;;;;;5035154;28;20201;-42
2022/05/06 02:51:44;;;;;;;8.38;4.18;;;;;;;;;;5034173;28;20659;-40
2022/05/06 02:54:11;;;;;;;8.98;4.03;;;;;;;;;;5035172;28;20216;-40
2022/05/06 02:56:39;;;;;;;12.65;4.22;;;;;;;;;;5035099;28;20204;-40
2022/05/06 02:59:08;;;;;;;12.25;4.20;;;;;;;;;;5034737;28;20632;-41
2022/05/06 03:01:38;;;;;;;9.98;4.50;;;;;;;;;;5034849;28;20201;-42
2022/05/06 03:04:12;;;;;;;10.50;4.32;;;;;;;;;;5034798;28;20201;-43
2022/05/06 03:06:44;;;;;;;6.47;3.75;;;;;;;;;;5034605;28;20205;-42
2022/05/06 03:09:20;;;;;;;9.15;4.43;;;;;;;;;;5034767;28;20201;-41
2022/05/06 03:11:47;;;;;;;10.80;4.15;;;;;;;;;;5034684;28;20257;-42
2022/05/06 03:14:19;;;;;;;6.93;4.47;;;;;;;;;;5034208;28;20679;-43
2022/05/06 03:17:11;;;;;;;9.52;4.28;;;;;;;;;;5034419;28;20196;-41
2022/05/06 03:19:38;;;;;;;10.73;4.43;;;;;;;;;;5035420;28;20201;-41
2022/05/06 03:22:06;;;;;;;9.43;4.05;;;;;;;;;;5034555;28;20208;-42
2022/05/06 03:24:34;;;;;;;10.27;4.40;;;;;;;;;;5034023;28;20200;-44
2022/05/06 03:27:02;;;;;;;10.65;3.70;;;;;;;;;;5034875;28;20205;-42
2022/05/06 03:29:29;;;;;;;8.75;4.15;;;;;;;;;;5033771;28;20213;-42
2022/05/06 03:31:59;;;;;;;11.57;4.93;;;;;;;;;;5033482;28;20236;-41
2022/05/06 03:34:29;;;;;;;12.05;4.22;;;;;;;;;;5033899;28;20654;-41
2022/05/06 03:36:56;;;;;;;9.25;4.18;;;;;;;;;;5034069;28;20204;-42
2022/05/06 03:39:24;;;;;;;9.10;4.35;;;;;;;;;;5033708;28;20215;-43
2022/05/06 03:41:59;;;;;;;9.07;3.92;;;;;;;;;;5014437;28;20296;-41
2022/05/06 03:44:27;;;;;;;12.93;4.07;;;;;;;;;;5014464;28;20312;-41
2022/05/06 03:46:55;;;;;;;10.02;4.28;;;;;;;;;;5015324;28;20205;-41
2022/05/06 03:49:33;;;;;;;8.20;4.10;;;;;;;;;;5014776;28;20252;-41
2022/05/06 03:52:03;;;;;;;10.27;4.07;;;;;;;;;;5014891;28;20225;-43
2022/05/06 03:54:33;;;;;;;7.22;3.45;;;;;;;;;;5014553;28;20209;-41
2022/05/06 03:57:01;;;;;;;11.65;4.38;;;;;;;;;;5014320;28;20209;-42
2022/05/06 03:59:28;;;;;;;13.20;4.15;;;;;;;;;;5014300;28;20198;-41
2022/05/06 04:02:03;;;;;;;9.93;4.45;;;;;;;;;;5014561;28;20227;-41
2022/05/06 04:04:32;;;;;;;11.35;4.40;;;;;;;;;;5014426;28;20212;-42
2022/05/06 04:07:04;;;;;;;13.88;4.88;;;;;;;;;;5014149;28;20189;-45
2022/05/06 04:09:38;;;;;;;11.15;4.30;;;;;;;;;;5014217;28;20201;-43
2022/05/06 04:12:07;;;;;;;11.50;4.25;;;;;;;;;;5012862;28;20241;-43
2022/05/06 04:14:39;;;;;;;7.45;3.75;;;;;;;;;;5013716;28;20221;-45
2022/05/06 04:17:06;;;;;;;9.65;4.20;;;;;;;;;;5013997;28;20724;-43
2022/05/06 04:19:34;;;;;;;10.57;4.55;;;;;;;;;;5013617;28;20746;-43
2022/05/06 04:25:04;;;;;;;9.40;4.25;;;;;;;;;;5031728;28;20216;-42
2022/05/06 04:27:34;;;;;;;6.28;3.40;;;;;;;;;;5031318;28;20217;-44
2022/05/06 04:30:02;;;;;;;8.93;3.85;;;;;;;;;;5026707;28;20618;-42
2022/05/06 04:32:42;;;;;;;13.95;4.10;;;;;;;;;;5031514;28;20236;-41
2022/05/06 04:35:13;;;;;;;11.35;4.75;;;;;;;;;;5032719;28;20223;-42
2022/05/06 04:37:40;;;;;;;9.02;4.10;;;;;;;;;;5016704;28;20232;-43
2022/05/06 04:40:08;;;;;;;10.93;4.47;;;;;;;;;;5032680;28;20565;-43
2022/05/06 04:42:37;;;;;;;11.02;4.35;;;;;;;;;;5032301;28;20317;-43
2022/05/06 04:45:07;;;;;;;19.02;4.55;;;;;;;;;;5031568;28;20223;-43
2022/05/06 04:47:39;;;;;;;14.30;4.40;;;;;;;;;;5032916;28;20224;-42
2022/05/06 04:50:07;;;;;;;9.15;3.80;;;;;;;;;;5028566;28;20228;-41
2022/05/06 04:52:34;;;;;;;13.00;4.20;;;;;;;;;;5032067;28;20228;-42
2022/05/06 04:55:03;;;;;;;11.90;4.28;;;;;;;;;;5031638;28;20235;-42
2022/05/06 04:57:30;;;;;;;11.65;4.25;;;;;;;;;;5032847;28;20235;-42
2022/05/06 04:59:58;;;;;;;16.02;4.55;;;;;;;;;;5032838;28;20308;-45
2022/05/06 05:02:27;;;;;;;8.88;4.60;;;;;;;;;;5027827;28;20221;-44
2022/05/06 05:04:58;;;;;;;11.18;4.60;;;;;;;;;;5031624;28;20252;-42
2022/05/06 05:07:32;;;;;;;8.20;4.20;;;;;;;;;;5031516;28;20231;-43
2022/05/06 05:10:01;;;;;;;9.25;4.35;;;;;;;;;;5031329;28;20776;-42
2022/05/06 05:12:28;;;;;;;12.25;4.38;;;;;;;;;;5031101;28;20240;-44
2022/05/06 05:14:55;;;;;;;10.73;4.72;;;;;;;;;;5032929;28;20219;-43
2022/05/06 05:17:27;;;;;;;9.68;4.60;;;;;;;;;;5035219;28;20224;-45
2022/05/06 05:19:54;;;;;;;14.40;4.57;;;;;;;;;;5034799;28;20683;-42
2022/05/06 05:22:24;;;;;;;10.43;4.70;;;;;;;;;;5035207;28;20247;-41
2022/05/06 05:24:52;;;;;;;11.07;4.72;;;;;;;;;;5031812;28;20216;-42
2022/05/06 05:27:20;;;;;;;14.23;4.75;;;;;;;;;;5036176;28;20225;-43
2022/05/06 05:29:48;;;;;;;10.45;4.38;;;;;;;;;;5035957;28;20293;-43
2022/05/06 05:32:18;;;;;;;9.70;4.40;;;;;;;;;;5028572;28;20296;-42
2022/05/06 05:34:46;;;;;;;8.85;4.47;;;;;;;;;;5049484;28;20295;-42
2022/05/06 05:37:17;;;;;;;9.38;4.28;;;;;;;;;;5016149;28;20237;-41
2022/05/06 05:39:45;;;;;;;14.50;4.72;;;;;;;;;;5015525;28;20229;-40
2022/05/06 05:42:19;;;;;;;11.25;4.20;;;;;;;;;;5017211;28;20214;-41
2022/05/06 05:50:23;;;;;;;18.92;8.85;;;;;;;;;;5016168;28;20282;-42
2022/05/06 05:52:50;;;;;;;18.15;9.63;;;;;;;;;;5016480;28;20225;-41
2022/05/06 05:55:19;;;;;;;13.15;5.85;;;;;;;;;;5015505;28;20221;-42
2022/05/06 05:57:47;;;;;;;10.43;5.55;;;;;;;;;;5084455;28;20216;-44
2022/05/06 06:00:16;;;;;;;14.68;4.93;;;;;;;;;;5056134;28;20224;-41
2022/05/06 06:02:49;;;;;;;10.07;4.97;;;;;;;;;;5055395;28;20228;-42
2022/05/06 06:05:17;;;;;;;12.88;5.05;;;;;;;;;;5055677;28;20216;-43
2022/05/06 06:07:44;;;;;;;16.60;5.07;;;;;;;;;;5055167;28;20303;-43
2022/05/06 06:10:14;;;;;;;12.23;5.07;;;;;;;;;;5055092;28;20258;-43
2022/05/06 06:12:42;;;;;;;8.52;4.82;;;;;;;;;;5056242;28;20259;-42
2022/05/06 06:15:10;;;;;;;10.20;5.00;;;;;;;;;;5055389;28;20220;-43
2022/05/06 06:17:38;;;;;;;8.82;5.05;;;;;;;;;;5055338;28;20231;-43
2022/05/06 06:20:07;;;;;;;12.13;4.72;;;;;;;;;;5055380;28;20223;-43
2022/05/06 06:22:44;;;;;;;10.95;5.55;;;;;;;;;;5055334;28;20227;-43
2022/05/06 06:25:13;;;;;;;11.10;5.90;;;;;;;;;;5054962;28;20223;-42
2022/05/06 06:27:40;;;;;;;12.55;5.93;;;;;;;;;;5036819;28;20685;-43
2022/05/06 06:30:11;;;;;;;14.88;5.05;;;;;;;;;;5035307;28;20221;-41
2022/05/06 06:32:50;;;;;;;11.43;5.57;;;;;;;;;;5034910;28;20232;-42
2022/05/06 06:35:22;;;;;;;7.05;5.18;;;;;;;;;;5035176;28;20232;-42
2022/05/06 06:37:53;;;;;;;12.35;5.30;;;;;;;;;;5035000;28;20609;-42
2022/05/06 06:40:23;;;;;;;9.95;5.40;;;;;;;;;;5034486;28;20251;-42
2022/05/06 06:42:51;;;;;;;13.43;6.10;;;;;;;;;;5034619;28;20232;-43
2022/05/06 06:45:48;;;;;;;8.52;5.50;;;;;;;;;;5034606;28;20221;-43
2022/05/06 06:48:47;;;;;;;11.05;6.03;;;;;;;;;;5013475;28;20256;-44
2022/05/06 06:51:34;;;;;;;12.68;6.10;;;;;;;;;;4997924;28;20229;-43
2022/05/06 06:54:01;;;;;;;10.85;6.25;;;;;;;;;;5013201;28;20351;-43
2022/05/06 06:56:28;;;;;;;10.85;5.68;;;;;;;;;;5014046;28;20287;-43
2022/05/06 06:58:55;;;;;;;9.02;6.43;;;;;;;;;;5013621;28;20237;-44
2022/05/06 07:01:23;;;;;;;10.98;6.00;;;;;;;;;;5013964;28;20229;-43
2022/05/06 07:03:50;;;;;;;9.55;6.50;;;;;;;;;;5013618;28;20272;-43
2022/05/06 07:11:57;;;;;;;9.77;6.30;;;;;;;;;;5013601;28;20229;-43
2022/05/06 07:14:33;;;;;;;9.70;6.60;;;;;;;;;;5013537;28;20240;-43
2022/05/06 07:17:02;;;;;;;13.07;7.00;;;;;;;;;;5013455;28;20229;-43
2022/05/06 07:19:29;;;;;;;11.02;6.28;;;;;;;;;;5013463;28;20229;-44
2022/05/06 07:21:56;;;;;;;15.00;7.03;;;;;;;;;;5013325;28;20248;-43
2022/05/06 07:24:24;;;;;;;18.58;6.78;;;;;;;;;;5023196;28;20236;-44
2022/05/06 07:26:53;;;;;;;12.80;6.60;;;;;;;;;;5044766;28;20341;-43
2022/05/06 07:29:20;;;;;;;11.98;6.90;;;;;;;;;;5054578;28;20763;-42
2022/05/06 07:31:48;;;;;;;15.13;6.40;;;;;;;;;;5054476;28;20228;-43
2022/05/06 07:34:15;;;;;;;11.93;6.45;;;;;;;;;;5053913;28;20242;-43
2022/05/06 07:36:43;;;;;;;10.75;6.78;;;;;;;;;;5054364;28;20239;-43
2022/05/06 07:39:15;;;;;;;13.00;6.72;;;;;;;;;;5054008;28;20232;-43
2022/05/06 07:41:43;;;;;;;10.13;6.82;;;;;;;;;;5054423;28;20646;-47
2022/05/06 07:44:10;;;;;;;11.18;6.90;;;;;;;;;;5054453;28;20667;-43
2022/05/06 07:46:38;;;;;;;16.05;7.32;;;;;;;;;;5054448;28;20285;-43
2022/05/06 07:49:06;;;;;;;18.20;7.68;;;;;;;;;;5054174;28;20228;-43
2022/05/06 07:51:33;;;;;;;11.65;6.43;;;;;;;;;;5054811;28;20294;-43
2022/05/06 07:54:02;;;;;;;10.25;6.65;;;;;;;;;;5053658;28;20239;-45
2022/05/06 07:56:29;;;;;;;10.55;7.40;;;;;;;;;;5047010;28;20239;-43
2022/05/06 07:58:56;;;;;;;12.13;6.60;;;;;;;;;;5034184;28;20753;-43
2022/05/06 08:06:56;;;;;;;11.93;6.22;;;;;;;;;;5034143;28;20298;-44
2022/05/06 08:09:23;;;;;;;14.30;7.03;;;;;;;;;;5033848;28;20232;-43
2022/05/06 08:11:51;;;;;;;11.68;7.45;;;;;;;;;;5034566;28;20225;-43
2022/05/06 08:14:19;;;;;;;12.13;7.07;;;;;;;;;;5014327;28;20668;-42
2022/05/06 08:16:48;;;;;;;13.80;6.78;;;;;;;;;;5014230;28;20221;-42
2022/05/06 08:19:16;;;;;;;14.70;7.63;;;;;;;;;;5014359;28;20563;-42
2022/05/06 08:21:50;;;;;;;18.48;7.53;;;;;;;;;;5014285;28;20232;-45
2022/05/06 08:24:18;;;;;;;12.55;7.50;;;;;;;;;;5014104;28;20221;-42
2022/05/06 08:26:45;;;;;;;19.25;7.47;;;;;;;;;;5032346;28;20224;-44
2022/05/06 08:29:13;;;;;;;12.27;7.15;;;;;;;;;;5054262;28;20219;-42
2022/05/06 08:31:40;;;;;;;12.27;7.20;;;;;;;;;;5053714;28;20220;-43
2022/05/06 08:34:09;;;;;;;15.13;7.55;;;;;;;;;;5054128;28;20227;-42
2022/05/06 08:36:38;;;;;;;10.65;7.63;;;;;;;;;;5054085;28;20663;-43
2022/05/06 08:39:06;;;;;;;14.30;7.32;;;;;;;;;;5053354;28;20224;-44
2022/05/06 08:41:35;;;;;;;12.43;6.95;;;;;;;;;;5053656;28;20281;-42
2022/05/06 08:52:36;;;;;;;13.73;6.85;;;;;;;;;;5037754;28;20224;-43
2022/05/06 08:55:05;;;;;;;11.40;6.85;;;;;;;;;;5038350;28;20552;-43
2022/05/06 08:57:32;;;;;;;14.52;7.05;;;;;;;;;;5038365;28;20646;-43
2022/05/06 08:59:59;;;;;;;16.58;7.40;;;;;;;;;;5038452;28;20201;-43
2022/05/06 09:02:28;;;;;;;13.35;7.55;;;;;;;;;;5038369;28;20704;-43
2022/05/06 09:04:55;;;;;;;11.02;7.60;;;;;;;;;;5038394;28;20245;-43
2022/05/06 09:07:24;;;;;;;12.48;7.25;;;;;;;;;;5038103;28;20205;-43
2022/05/06 09:10:13;;;;;;;15.68;8.93;;;;;;;;;;5037968;28;20636;-43
2022/05/06 09:12:42;;;;;;;12.57;8.02;;;;;;;;;;5038309;28;20209;-43
2022/05/06 09:17:56;;;;;;;15.73;9.60;;;;;;;;;;5037994;28;20201;-43
2022/05/06 09:20:25;;;;;;;16.75;8.80;;;;;;;;;;5037854;28;20204;-43
2022/05/06 09:22:53;;;;;;;13.38;8.77;;;;;;;;;;5037932;28;20593;-43
2022/05/06 09:25:51;;;;;;;11.05;8.98;;;;;;;;;;5037854;28;20197;-43
2022/05/06 09:28:32;;;;;;;15.23;9.32;;;;;;;;;;5037327;28;20189;-42
2022/05/06 09:31:07;;;;;;;11.48;8.93;;;;;;;;;;5037945;28;20511;-44
2022/05/06 09:33:40;;;;;;;13.95;9.18;;;;;;;;;;5037567;28;20224;-43
2022/05/06 09:36:29;;;;;;;17.75;9.30;;;;;;;;;;5037646;28;20292;-43
2022/05/06 09:39:05;;;;;;;12.60;9.40;;;;;;;;;;5037631;28;20212;-43
2022/05/06 09:41:33;;;;;;;12.60;10.07;;;;;;;;;;5037596;28;20303;-43
2022/05/06 09:44:04;;;;;;;13.07;9.75;;;;;;;;;;5037661;28;20247;-43
2022/05/06 09:46:32;;;;;;;16.80;10.63;;;;;;;;;;5037653;28;20292;-43
2022/05/06 09:49:02;;;;;;;15.13;11.23;;;;;;;;;;5037623;28;20207;-44
2022/05/06 09:51:49;;;;;;;13.93;10.70;;;;;;;;;;5037418;28;20209;-43
2022/05/06 09:54:30;;;;;;;15.05;11.45;;;;;;;;;;5037318;28;20224;-43
2022/05/06 09:56:58;;;;;;;16.58;11.43;;;;;;;;;;5037250;28;20569;-43
2022/05/06 09:59:25;;;;;;;17.33;11.13;;;;;;;;;;5036530;28;20262;-43
2022/05/06 10:01:52;;;;;;;15.52;10.68;;;;;;;;;;5036095;28;20204;-43
2022/05/06 10:04:19;;;;;;;13.65;11.23;;;;;;;;;;5037036;28;20627;-43
2022/05/06 10:06:47;;;;;;;14.35;10.38;;;;;;;;;;5037198;28;20215;-43
2022/05/06 10:09:14;;;;;;;15.73;10.80;;;;;;;;;;5037377;28;20205;-42
2022/05/06 10:11:43;;;;;;;19.45;11.30;;;;;;;;;;5036251;28;20197;-43
2022/05/06 10:14:13;;;;;;;19.23;11.25;;;;;;;;;;5036877;28;20239;-43
2022/05/06 10:16:41;;;;;;;23.45;11.18;;;;;;;;;;5036669;28;20200;-43
2022/05/06 10:19:38;;;;;;;14.82;11.60;;;;;;;;;;5036889;28;20205;-43
2022/05/06 10:22:05;;;;;;;20.30;11.65;;;;;;;;;;5013967;28;20576;-44
2022/05/06 10:24:40;;;;;;;16.88;11.45;;;;;;;;;;5036625;28;20213;-42
2022/05/06 10:32:25;;;;;;;14.95;10.60;;;;;;;;;;5036819;28;20642;-43
2022/05/06 10:33:19;;;;;;;15.85;10.98;;;;;;;;;;5036892;28;20181;-45
2022/05/06 10:35:47;;;;;;;14.10;10.88;;;;;;;;;;5036921;28;20228;-42
2022/05/06 10:38:15;;;;;;;18.42;12.50;;;;;;;;;;5036640;28;20196;-44
2022/05/06 10:40:56;;;;;;;21.13;11.75;;;;;;;;;;5016665;28;20240;-43
2022/05/06 10:43:42;;;;;;;15.70;11.43;;;;;;;;;;5015953;28;20546;-43
2022/05/06 10:46:32;;;;;;;16.58;12.63;;;;;;;;;;5031336;28;20537;-43
2022/05/06 10:49:36;;;;;;;13.88;10.75;;;;;;;;;;5055379;28;20239;-44
2022/05/06 10:52:20;;;;;;;14.05;10.45;;;;;;;;;;5055705;28;20255;-44
2022/05/06 10:54:48;;;;;;;13.77;11.18;;;;;;;;;;5054765;28;20227;-44
2022/05/06 10:57:20;;;;;;;11.88;9.27;;;;;;;;;;5055376;28;20232;-43
2022/05/06 10:59:52;;;;;;;10.98;8.02;;;;;;;;;;5055155;28;20220;-44
2022/05/06 11:02:28;;;;;;;13.38;7.45;;;;;;;;;;5055193;28;20674;-44
2022/05/06 11:04:58;;;;;;;9.70;7.18;;;;;;;;;;5056074;28;20277;-43
2022/05/06 11:07:28;;;;;;;10.38;7.80;;;;;;;;;;5055904;28;20257;-43
2022/05/06 11:09:56;;;;;;;9.05;6.88;;;;;;;;;;5056106;28;20207;-43
2022/05/06 11:12:31;;;;;;;8.35;7.38;;;;;;;;;;5055145;28;20500;-43
2022/05/06 11:14:58;;;;;;;10.85;7.50;;;;;;;;;;5056350;28;20211;-45
2022/05/06 11:17:26;;;;;;;11.48;8.40;;;;;;;;;;5055541;28;20658;-43
2022/05/06 11:19:54;;;;;;;10.05;8.93;;;;;;;;;;5055455;28;20206;-43
2022/05/06 11:22:23;;;;;;;9.63;8.32;;;;;;;;;;5054656;28;20654;-43
2022/05/06 11:25:01;;;;;;;12.77;7.90;;;;;;;;;;5056351;28;20226;-43
2022/05/06 11:27:34;;;;;;;11.38;8.13;;;;;;;;;;5055809;28;20295;-43
2022/05/06 11:30:01;;;;;;;9.63;8.63;;;;;;;;;;5055721;28;20615;-43
2022/05/06 11:32:29;;;;;;;10.43;8.30;;;;;;;;;;5055511;28;20196;-42
2022/05/06 11:35:11;;;;;;;12.15;8.50;;;;;;;;;;5034870;28;20237;-43
2022/05/06 11:37:41;;;;;;;14.43;9.07;;;;;;;;;;5019599;28;20232;-42
2022/05/06 11:42:51;;;;;;;11.70;9.13;;;;;;;;;;5054814;28;20235;-43
2022/05/06 11:48:13;;;;;;;11.70;9.13;;;;;;;;;;5039384;28;20235;-44
2022/05/06 11:50:42;;;;;;;11.88;8.82;;;;;;;;;;5033801;28;20258;-43
2022/05/06 11:53:11;;;;;;;8.93;7.93;;;;;;;;;;5033875;28;20227;-44
2022/05/06 11:55:41;;;;;;;11.35;7.57;;;;;;;;;;5033917;28;20675;-43
2022/05/06 11:58:10;;;;;;;10.02;8.90;;;;;;;;;;5033292;28;20576;-45
2022/05/06 12:00:38;;;;;;;10.27;8.98;;;;;;;;;;5033871;28;20229;-44
2022/05/06 12:03:07;;;;;;;11.93;8.07;;;;;;;;;;5020329;28;20232;-43
2022/05/06 12:05:36;;;;;;;9.90;8.27;;;;;;;;;;5028899;28;20243;-43
2022/05/06 12:08:04;;;;;;;10.90;8.95;;;;;;;;;;5053649;28;20682;-45
2022/05/06 12:10:33;;;;;;;9.80;7.90;;;;;;;;;;5053832;28;20627;-45
2022/05/06 12:13:08;;;;;;;12.18;6.72;;;;;;;;;;5054537;28;20200;-43
2022/05/06 12:15:43;;;;;;;9.98;7.20;;;;;;;;;;5055260;28;20222;-43
2022/05/06 12:18:18;;;;;;;10.38;6.72;;;;;;;;;;5054797;28;20580;-44
2022/05/06 12:20:48;;;;;;;9.90;6.57;;;;;;;;;;5054718;28;20204;-43
2022/05/06 12:23:15;;;;;;;8.10;6.45;;;;;;;;;;5054973;28;20204;-43
2022/05/06 12:25:53;;;;;;;10.35;7.30;;;;;;;;;;5052989;28;20211;-43
2022/05/06 12:28:20;;;;;;;11.02;6.72;;;;;;;;;;5054143;28;20218;-43
2022/05/06 12:30:58;;;;;;;8.32;6.18;;;;;;;;;;5031621;28;20208;-44
2022/05/06 12:33:37;;;;;;;8.73;6.72;;;;;;;;;;5026163;28;20232;-43
2022/05/06 12:36:06;;;;;;;7.45;6.38;;;;;;;;;;5034184;28;20223;-47
2022/05/06 12:38:36;;;;;;;10.73;6.68;;;;;;;;;;5032708;28;20239;-45
2022/05/06 12:41:16;;;;;;;10.50;6.57;;;;;;;;;;5032755;28;20227;-45
2022/05/06 12:43:44;;;;;;;9.02;6.28;;;;;;;;;;5034774;28;20228;-44
2022/05/06 12:46:11;;;;;;;7.53;5.35;;;;;;;;;;5044479;28;20274;-46
2022/05/06 12:51:28;;;;;;;8.15;6.05;;;;;;;;;;5033509;28;20220;-45
2022/05/06 12:53:55;;;;;;;9.90;5.78;;;;;;;;;;5033656;28;20237;-45
2022/05/06 12:56:22;;;;;;;9.88;5.63;;;;;;;;;;5034484;28;20205;-47
2022/05/06 12:58:49;;;;;;;8.75;5.35;;;;;;;;;;5032885;28;20715;-43
2022/05/06 13:01:17;;;;;;;6.55;4.60;;;;;;;;;;5032129;28;20207;-47
2022/05/06 13:03:44;;;;;;;8.10;5.82;;;;;;;;;;5029421;28;20204;-46
2022/05/06 13:06:11;;;;;;;5.80;4.70;;;;;;;;;;5028994;28;20232;-45
2022/05/06 13:08:39;;;;;;;6.68;5.15;;;;;;;;;;5024456;28;20221;-43
2022/05/06 13:11:06;;;;;;;7.72;4.97;;;;;;;;;;5033011;28;20238;-43
2022/05/06 13:13:33;;;;;;;6.10;4.88;;;;;;;;;;5032196;28;20217;-43
2022/05/06 13:16:00;;;;;;;7.18;4.63;;;;;;;;;;5032590;28;20237;-43
2022/05/06 13:18:27;;;;;;;5.80;4.40;;;;;;;;;;5031243;28;20231;-42
2022/05/06 13:20:54;;;;;;;5.00;4.20;;;;;;;;;;5032055;28;20687;-43
2022/05/06 13:23:22;;;;;;;9.30;4.55;;;;;;;;;;5028787;28;20651;-43
2022/05/06 13:25:49;;;;;;;6.60;4.53;;;;;;;;;;5032144;28;20231;-44
2022/05/06 13:28:16;;;;;;;5.47;4.55;;;;;;;;;;5030808;28;20213;-43
2022/05/06 13:30:43;;;;;;;6.07;4.40;;;;;;;;;;5031200;28;20223;-43
2022/05/06 13:33:10;;;;;;;4.85;4.45;;;;;;;;;;5028586;28;20213;-43
2022/05/06 13:35:37;;;;;;;6.68;4.90;;;;;;;;;;5030703;28;20232;-44
2022/05/06 13:38:05;;;;;;;6.20;4.80;;;;;;;;;;5033569;28;20232;-43
2022/05/06 13:40:32;;;;;;;7.57;4.32;;;;;;;;;;5032225;28;20213;-43
2022/05/06 13:42:59;;;;;;;7.55;4.28;;;;;;;;;;5031973;28;20753;-42
2022/05/06 13:45:26;;;;;;;6.55;4.75;;;;;;;;;;5032243;28;20220;-43
2022/05/06 13:47:53;;;;;;;5.57;5.03;;;;;;;;;;5032555;28;20231;-42
2022/05/06 13:50:21;;;;;;;5.85;4.72;;;;;;;;;;5033073;28;20224;-42
2022/05/06 13:52:49;;;;;;;7.05;5.00;;;;;;;;;;5039831;28;20658;-42
2022/05/06 13:55:16;;;;;;;8.07;4.90;;;;;;;;;;5039662;28;20246;-45
2022/05/06 14:00:30;;;;;;;7.53;5.50;;;;;;;;;;5035900;28;20275;-42
2022/05/06 14:02:58;;;;;;;5.53;5.00;;;;;;;;;;5034974;28;20224;-41
2022/05/06 14:05:26;;;;;;;7.25;5.00;;;;;;;;;;5035528;28;20217;-42
2022/05/06 14:07:59;;;;;;;7.88;5.72;;;;;;;;;;5035330;28;20212;-43
2022/05/06 14:10:27;;;;;;;6.25;5.65;;;;;;;;;;5034870;28;20260;-44
2022/05/06 14:12:54;;;;;;;9.00;5.55;;;;;;;;;;5031842;28;20235;-48
2022/05/06 14:15:22;;;;;;;6.20;4.97;;;;;;;;;;5033813;28;20247;-47
2022/05/06 14:17:49;;;;;;;7.15;4.75;;;;;;;;;;5035198;28;20286;-44
2022/05/06 14:20:16;;;;;;;5.53;4.55;;;;;;;;;;5036150;28;20228;-46
2022/05/06 14:22:43;;;;;;;5.93;5.07;;;;;;;;;;5039126;28;20219;-47
2022/05/06 14:25:10;;;;;;;6.00;5.35;;;;;;;;;;5056252;28;20314;-44
2022/05/06 14:27:41;;;;;;;8.23;5.28;;;;;;;;;;5056578;28;20203;-44
2022/05/06 14:30:09;;;;;;;8.90;5.78;;;;;;;;;;5036810;28;20207;-44
2022/05/06 14:32:36;;;;;;;8.80;6.90;;;;;;;;;;5035316;28;20204;-44
2022/05/06 14:35:16;;;;;;;8.15;6.47;;;;;;;;;;5036391;28;20229;-45
2022/05/06 14:37:44;;;;;;;8.65;7.30;;;;;;;;;;5035929;28;20502;-44
2022/05/06 14:40:12;;;;;;;8.02;7.22;;;;;;;;;;5036209;28;20236;-46
2022/05/06 14:42:39;;;;;;;9.40;8.48;;;;;;;;;;5035172;28;20205;-43
2022/05/06 14:45:08;;;;;;;9.75;8.15;;;;;;;;;;5036178;28;20218;-44
2022/05/06 14:47:36;;;;;;;10.90;7.72;;;;;;;;;;5035479;28;20258;-44
2022/05/06 14:50:05;;;;;;;11.23;9.10;;;;;;;;;;5036514;28;20232;-44
2022/05/06 14:52:33;;;;;;;12.10;9.73;;;;;;;;;;5029120;28;20628;-45
2022/05/06 14:55:04;;;;;;;10.05;9.05;;;;;;;;;;5032298;28;20233;-45
2022/05/06 14:57:32;;;;;;;10.45;9.45;;;;;;;;;;5025046;28;20205;-45
2022/05/06 14:59:59;;;;;;;11.63;10.10;;;;;;;;;;5015960;28;20205;-49
2022/05/06 15:02:32;;;;;;;11.70;10.20;;;;;;;;;;5034434;28;20209;-46
2022/05/06 15:05:00;;;;;;;12.10;9.32;;;;;;;;;;5035740;28;20212;-44
2022/05/06 15:07:27;;;;;;;13.48;9.85;;;;;;;;;;5033822;28;20233;-45
2022/05/06 15:09:55;;;;;;;9.90;8.90;;;;;;;;;;5035006;28;20686;-46
2022/05/06 15:12:23;;;;;;;12.27;9.00;;;;;;;;;;5030498;28;20284;-45
2022/05/06 15:14:51;;;;;;;10.35;9.02;;;;;;;;;;5035118;28;20236;-45
2022/05/06 15:17:18;;;;;;;9.75;8.25;;;;;;;;;;5035614;28;20208;-45
2022/05/06 15:19:47;;;;;;;9.82;8.25;;;;;;;;;;5034688;28;20197;-45
2022/05/06 15:22:15;;;;;;;11.35;7.88;;;;;;;;;;5031009;28;20628;-45
2022/05/06 15:24:43;;;;;;;9.57;7.88;;;;;;;;;;5026589;28;20205;-46
2022/05/06 15:27:10;;;;;;;8.77;7.95;;;;;;;;;;5053148;28;20678;-45
2022/05/06 15:29:37;;;;;;;9.15;8.25;;;;;;;;;;5041298;28;20220;-44
2022/05/06 15:32:05;;;;;;;9.57;8.30;;;;;;;;;;5042165;28;20225;-44
2022/05/06 15:34:32;;;;;;;9.48;8.57;;;;;;;;;;5046579;28;20244;-45
2022/05/06 15:36:59;;;;;;;10.65;9.18;;;;;;;;;;5046787;28;20231;-44
2022/05/06 15:39:26;;;;;;;10.55;9.38;;;;;;;;;;5045867;28;20228;-45
2022/05/06 15:41:53;;;;;;;10.93;9.50;;;;;;;;;;5034867;28;20251;-44
2022/05/06 15:44:20;;;;;;;12.00;10.70;;;;;;;;;;5034616;28;20252;-44